Brummitt, Arkansas
Current Conditions -  °F | °C
As of 6:35 PM on Sunday 21 Dec 2014 (Local Time) from KSGT Reporting Station
Clear Clear  
Wind Chill: 42°   Ceiling: Unl
Heat Index: 46°   Visibility: NA
Dew Point: 36°   Wind: 8mph
Humidity: 66%   Direction: 110°ESE
Pressure: 29.97"   Gusts: NA
Location:  34.3615°N, 91.5213°W
Report Text: KSGT 220035Z 11007KT CLR 08/02 A2997 RMK AO1
Loading
Personal Weather Stations






























Interactive Weather Map New forecast layout! Learn more

10-Day Weather Forecast

Advertisements
Track Severe Weather on mobile